sensor_id;sensor_type;location;lat;lon;timestamp;P1;durP1;ratioP1;P2;durP2;ratioP2
55732;SDS011;41637;52.364;9.910;2023-03-01T00:01:17;11.50;;;6.80;;
55732;SDS011;41637;52.364;9.910;2023-03-01T00:03:46;12.90;;;8.10;;
55732;SDS011;41637;52.364;9.910;2023-03-01T00:06:13;15.30;;;9.30;;
55732;SDS011;41637;52.364;9.910;2023-03-01T00:08:43;17.80;;;9.20;;
55732;SDS011;41637;52.364;9.910;2023-03-01T00:11:17;18.10;;;10.00;;
55732;SDS011;41637;52.364;9.910;2023-03-01T00:13:47;18.50;;;9.70;;
55732;SDS011;41637;52.364;9.910;2023-03-01T00:16:18;16.70;;;9.10;;
55732;SDS011;41637;52.364;9.910;2023-03-01T00:18:46;21.00;;;9.40;;
55732;SDS011;41637;52.364;9.910;2023-03-01T00:21:13;13.60;;;8.40;;
55732;SDS011;41637;52.364;9.910;2023-03-01T00:23:41;14.40;;;8.70;;
55732;SDS011;41637;52.364;9.910;2023-03-01T00:26:09;16.60;;;8.90;;
55732;SDS011;41637;52.364;9.910;2023-03-01T00:28:40;14.20;;;8.30;;
55732;SDS011;41637;52.364;9.910;2023-03-01T00:31:09;14.60;;;8.70;;
55732;SDS011;41637;52.364;9.910;2023-03-01T00:33:38;14.30;;;8.40;;
55732;SDS011;41637;52.364;9.910;2023-03-01T00:36:06;16.30;;;8.60;;
55732;SDS011;41637;52.364;9.910;2023-03-01T00:38:37;14.70;;;8.80;;
55732;SDS011;41637;52.364;9.910;2023-03-01T00:41:05;16.30;;;9.00;;
55732;SDS011;41637;52.364;9.910;2023-03-01T00:43:34;13.90;;;8.40;;
55732;SDS011;41637;52.364;9.910;2023-03-01T00:46:04;13.30;;;8.60;;
55732;SDS011;41637;52.364;9.910;2023-03-01T00:48:32;14.00;;;8.80;;
55732;SDS011;41637;52.364;9.910;2023-03-01T00:53:34;15.00;;;8.30;;
55732;SDS011;41637;52.364;9.910;2023-03-01T00:56:02;15.10;;;8.00;;
55732;SDS011;41637;52.364;9.910;2023-03-01T00:58:29;17.40;;;7.90;;
55732;SDS011;41637;52.364;9.910;2023-03-01T01:00:57;13.60;;;7.70;;
55732;SDS011;41637;52.364;9.910;2023-03-01T01:03:24;13.20;;;7.80;;
55732;SDS011;41637;52.364;9.910;2023-03-01T01:05:51;14.50;;;8.10;;
55732;SDS011;41637;52.364;9.910;2023-03-01T01:08:21;15.10;;;7.70;;
55732;SDS011;41637;52.364;9.910;2023-03-01T01:10:49;11.20;;;7.40;;
55732;SDS011;41637;52.364;9.910;2023-03-01T01:13:16;11.40;;;6.50;;
55732;SDS011;41637;52.364;9.910;2023-03-01T01:15:43;10.50;;;6.20;;
55732;SDS011;41637;52.364;9.910;2023-03-01T01:18:10;9.60;;;6.20;;
55732;SDS011;41637;52.364;9.910;2023-03-01T01:20:37;11.30;;;6.90;;
55732;SDS011;41637;52.364;9.910;2023-03-01T01:23:05;13.50;;;7.50;;
55732;SDS011;41637;52.364;9.910;2023-03-01T01:25:34;12.00;;;7.40;;
55732;SDS011;41637;52.364;9.910;2023-03-01T01:28:02;12.40;;;7.20;;
55732;SDS011;41637;52.364;9.910;2023-03-01T01:30:29;11.30;;;7.00;;
55732;SDS011;41637;52.364;9.910;2023-03-01T01:32:56;11.70;;;7.20;;
55732;SDS011;41637;52.364;9.910;2023-03-01T01:35:27;10.10;;;6.30;;
55732;SDS011;41637;52.364;9.910;2023-03-01T01:37:56;11.10;;;6.80;;
55732;SDS011;41637;52.364;9.910;2023-03-01T01:40:23;12.30;;;6.60;;
55732;SDS011;41637;52.364;9.910;2023-03-01T01:42:52;15.00;;;7.80;;
55732;SDS011;41637;52.364;9.910;2023-03-01T01:45:27;14.10;;;7.90;;
55732;SDS011;41637;52.364;9.910;2023-03-01T01:48:00;11.60;;;7.60;;
55732;SDS011;41637;52.364;9.910;2023-03-01T01:50:31;14.70;;;7.40;;
55732;SDS011;41637;52.364;9.910;2023-03-01T01:53:14;12.80;;;7.20;;
55732;SDS011;41637;52.364;9.910;2023-03-01T01:55:45;13.50;;;7.30;;
55732;SDS011;41637;52.364;9.910;2023-03-01T01:58:15;12.50;;;7.40;;
55732;SDS011;41637;52.364;9.910;2023-03-01T02:00:45;12.70;;;7.60;;
55732;SDS011;41637;52.364;9.910;2023-03-01T02:03:26;10.40;;;7.00;;
55732;SDS011;41637;52.364;9.910;2023-03-01T02:08:42;13.70;;;7.50;;
55732;SDS011;41637;52.364;9.910;2023-03-01T02:11:10;14.30;;;8.00;;
55732;SDS011;41637;52.364;9.910;2023-03-01T02:13:40;13.40;;;8.00;;
55732;SDS011;41637;52.364;9.910;2023-03-01T02:16:12;13.90;;;8.00;;
55732;SDS011;41637;52.364;9.910;2023-03-01T02:18:41;14.40;;;8.20;;
55732;SDS011;41637;52.364;9.910;2023-03-01T02:24:40;12.50;;;7.30;;
55732;SDS011;41637;52.364;9.910;2023-03-01T02:27:12;11.50;;;7.50;;
55732;SDS011;41637;52.364;9.910;2023-03-01T02:29:39;13.70;;;7.90;;
55732;SDS011;41637;52.364;9.910;2023-03-01T02:32:06;12.40;;;7.80;;
55732;SDS011;41637;52.364;9.910;2023-03-01T02:34:33;13.20;;;7.40;;
55732;SDS011;41637;52.364;9.910;2023-03-01T02:37:01;13.50;;;8.00;;
55732;SDS011;41637;52.364;9.910;2023-03-01T02:39:36;11.40;;;7.00;;
55732;SDS011;41637;52.364;9.910;2023-03-01T02:42:10;12.60;;;7.20;;
55732;SDS011;41637;52.364;9.910;2023-03-01T02:44:38;11.60;;;6.90;;
55732;SDS011;41637;52.364;9.910;2023-03-01T02:47:06;11.50;;;7.10;;
55732;SDS011;41637;52.364;9.910;2023-03-01T02:49:34;11.80;;;7.40;;
55732;SDS011;41637;52.364;9.910;2023-03-01T02:55:10;10.70;;;6.40;;
55732;SDS011;41637;52.364;9.910;2023-03-01T02:57:43;11.90;;;6.70;;
55732;SDS011;41637;52.364;9.910;2023-03-01T03:00:13;11.20;;;6.30;;
55732;SDS011;41637;52.364;9.910;2023-03-01T03:02:49;10.10;;;6.50;;
55732;SDS011;41637;52.364;9.910;2023-03-01T03:05:19;11.80;;;6.80;;
55732;SDS011;41637;52.364;9.910;2023-03-01T03:07:50;13.70;;;6.90;;
55732;SDS011;41637;52.364;9.910;2023-03-01T03:10:24;12.40;;;7.00;;
55732;SDS011;41637;52.364;9.910;2023-03-01T03:12:57;10.80;;;6.50;;
55732;SDS011;41637;52.364;9.910;2023-03-01T03:15:25;10.30;;;6.70;;
55732;SDS011;41637;52.364;9.910;2023-03-01T03:17:54;10.30;;;6.20;;
55732;SDS011;41637;52.364;9.910;2023-03-01T03:20:23;11.50;;;7.10;;
55732;SDS011;41637;52.364;9.910;2023-03-01T03:22:52;9.40;;;6.30;;
55732;SDS011;41637;52.364;9.910;2023-03-01T03:25:21;12.50;;;6.90;;
55732;SDS011;41637;52.364;9.910;2023-03-01T03:27:49;13.10;;;6.80;;
55732;SDS011;41637;52.364;9.910;2023-03-01T03:30:24;13.20;;;7.50;;
55732;SDS011;41637;52.364;9.910;2023-03-01T03:32:55;11.80;;;6.70;;
55732;SDS011;41637;52.364;9.910;2023-03-01T03:35:27;12.50;;;7.90;;
55732;SDS011;41637;52.364;9.910;2023-03-01T03:37:57;11.20;;;7.00;;
55732;SDS011;41637;52.364;9.910;2023-03-01T03:40:28;10.50;;;7.20;;
55732;SDS011;41637;52.364;9.910;2023-03-01T03:43:04;12.20;;;7.10;;
55732;SDS011;41637;52.364;9.910;2023-03-01T03:45:33;12.50;;;7.20;;
55732;SDS011;41637;52.364;9.910;2023-03-01T03:48:02;12.20;;;7.30;;
55732;SDS011;41637;52.364;9.910;2023-03-01T03:50:31;11.70;;;7.00;;
55732;SDS011;41637;52.364;9.910;2023-03-01T03:53:02;10.90;;;7.30;;
55732;SDS011;41637;52.364;9.910;2023-03-01T03:55:30;11.40;;;6.80;;
55732;SDS011;41637;52.364;9.910;2023-03-01T03:58:00;11.50;;;7.30;;
55732;SDS011;41637;52.364;9.910;2023-03-01T04:00:37;12.80;;;7.40;;
55732;SDS011;41637;52.364;9.910;2023-03-01T04:03:07;12.00;;;7.40;;
55732;SDS011;41637;52.364;9.910;2023-03-01T04:05:35;11.00;;;7.60;;
55732;SDS011;41637;52.364;9.910;2023-03-01T04:08:03;10.70;;;6.90;;
55732;SDS011;41637;52.364;9.910;2023-03-01T04:10:38;10.90;;;7.10;;
55732;SDS011;41637;52.364;9.910;2023-03-01T04:13:06;13.40;;;7.10;;
55732;SDS011;41637;52.364;9.910;2023-03-01T04:15:39;12.10;;;7.20;;
55732;SDS011;41637;52.364;9.910;2023-03-01T04:18:06;9.90;;;7.10;;
55732;SDS011;41637;52.364;9.910;2023-03-01T04:20:34;12.10;;;7.40;;
55732;SDS011;41637;52.364;9.910;2023-03-01T04:23:05;12.10;;;7.20;;
55732;SDS011;41637;52.364;9.910;2023-03-01T04:25:41;12.30;;;7.30;;
55732;SDS011;41637;52.364;9.910;2023-03-01T04:28:23;12.00;;;7.70;;
55732;SDS011;41637;52.364;9.910;2023-03-01T04:30:51;12.40;;;7.30;;
55732;SDS011;41637;52.364;9.910;2023-03-01T04:33:19;15.30;;;8.00;;
55732;SDS011;41637;52.364;9.910;2023-03-01T04:35:46;12.60;;;7.40;;
55732;SDS011;41637;52.364;9.910;2023-03-01T04:38:18;13.40;;;7.40;;
55732;SDS011;41637;52.364;9.910;2023-03-01T04:40:46;11.90;;;7.10;;
55732;SDS011;41637;52.364;9.910;2023-03-01T04:43:13;11.80;;;7.30;;
55732;SDS011;41637;52.364;9.910;2023-03-01T04:45:41;12.20;;;7.40;;
55732;SDS011;41637;52.364;9.910;2023-03-01T04:48:09;11.60;;;7.30;;
55732;SDS011;41637;52.364;9.910;2023-03-01T04:50:36;12.40;;;7.20;;
55732;SDS011;41637;52.364;9.910;2023-03-01T04:53:06;12.00;;;7.00;;
55732;SDS011;41637;52.364;9.910;2023-03-01T04:55:34;11.50;;;7.30;;
55732;SDS011;41637;52.364;9.910;2023-03-01T04:58:01;11.80;;;7.40;;
55732;SDS011;41637;52.364;9.910;2023-03-01T05:00:28;11.30;;;7.10;;
55732;SDS011;41637;52.364;9.910;2023-03-01T05:02:56;12.00;;;7.50;;
55732;SDS011;41637;52.364;9.910;2023-03-01T05:05:35;12.60;;;7.50;;
55732;SDS011;41637;52.364;9.910;2023-03-01T05:08:04;14.10;;;7.70;;
55732;SDS011;41637;52.364;9.910;2023-03-01T05:10:35;15.00;;;8.30;;
55732;SDS011;41637;52.364;9.910;2023-03-01T05:13:07;13.10;;;7.60;;
55732;SDS011;41637;52.364;9.910;2023-03-01T05:15:34;12.10;;;7.70;;
55732;SDS011;41637;52.364;9.910;2023-03-01T05:18:02;10.20;;;6.90;;
55732;SDS011;41637;52.364;9.910;2023-03-01T05:20:30;13.20;;;7.60;;
55732;SDS011;41637;52.364;9.910;2023-03-01T05:22:59;12.80;;;7.30;;
55732;SDS011;41637;52.364;9.910;2023-03-01T05:25:32;12.30;;;7.50;;
55732;SDS011;41637;52.364;9.910;2023-03-01T05:28:00;14.00;;;7.20;;
55732;SDS011;41637;52.364;9.910;2023-03-01T05:30:31;11.70;;;7.60;;
55732;SDS011;41637;52.364;9.910;2023-03-01T05:33:00;13.40;;;7.50;;
55732;SDS011;41637;52.364;9.910;2023-03-01T05:35:32;15.00;;;7.90;;
55732;SDS011;41637;52.364;9.910;2023-03-01T05:37:59;13.90;;;7.80;;
55732;SDS011;41637;52.364;9.910;2023-03-01T05:40:26;11.10;;;7.60;;
55732;SDS011;41637;52.364;9.910;2023-03-01T05:42:55;14.70;;;7.50;;
55732;SDS011;41637;52.364;9.910;2023-03-01T05:45:23;14.80;;;8.20;;
55732;SDS011;41637;52.364;9.910;2023-03-01T05:47:51;13.90;;;8.50;;
55732;SDS011;41637;52.364;9.910;2023-03-01T05:50:27;13.00;;;7.90;;
55732;SDS011;41637;52.364;9.910;2023-03-01T05:53:05;11.90;;;7.80;;
55732;SDS011;41637;52.364;9.910;2023-03-01T05:55:34;11.50;;;7.50;;
55732;SDS011;41637;52.364;9.910;2023-03-01T05:58:02;14.40;;;8.30;;
55732;SDS011;41637;52.364;9.910;2023-03-01T06:00:35;14.90;;;8.60;;
55732;SDS011;41637;52.364;9.910;2023-03-01T06:03:02;14.80;;;9.20;;
55732;SDS011;41637;52.364;9.910;2023-03-01T06:05:31;14.70;;;8.10;;
55732;SDS011;41637;52.364;9.910;2023-03-01T06:07:59;15.10;;;9.30;;
55732;SDS011;41637;52.364;9.910;2023-03-01T06:10:26;16.40;;;8.80;;
55732;SDS011;41637;52.364;9.910;2023-03-01T06:12:53;15.30;;;8.80;;
55732;SDS011;41637;52.364;9.910;2023-03-01T06:15:22;15.50;;;9.40;;
55732;SDS011;41637;52.364;9.910;2023-03-01T06:17:49;14.50;;;8.30;;
55732;SDS011;41637;52.364;9.910;2023-03-01T06:20:18;14.70;;;8.60;;
55732;SDS011;41637;52.364;9.910;2023-03-01T06:22:46;14.40;;;9.30;;
55732;SDS011;41637;52.364;9.910;2023-03-01T06:25:16;13.70;;;9.10;;
55732;SDS011;41637;52.364;9.910;2023-03-01T06:27:45;13.70;;;8.60;;
55732;SDS011;41637;52.364;9.910;2023-03-01T06:30:15;13.80;;;9.30;;
55732;SDS011;41637;52.364;9.910;2023-03-01T06:32:43;14.70;;;9.40;;
55732;SDS011;41637;52.364;9.910;2023-03-01T06:35:11;14.50;;;9.80;;
55732;SDS011;41637;52.364;9.910;2023-03-01T06:37:40;16.00;;;9.80;;
55732;SDS011;41637;52.364;9.910;2023-03-01T06:40:08;19.00;;;11.10;;
55732;SDS011;41637;52.364;9.910;2023-03-01T06:42:38;18.50;;;11.10;;
55732;SDS011;41637;52.364;9.910;2023-03-01T06:45:06;19.50;;;11.70;;
55732;SDS011;41637;52.364;9.910;2023-03-01T06:47:34;17.10;;;11.40;;
55732;SDS011;41637;52.364;9.910;2023-03-01T06:50:02;21.60;;;13.10;;
55732;SDS011;41637;52.364;9.910;2023-03-01T06:52:29;15.00;;;10.40;;
55732;SDS011;41637;52.364;9.910;2023-03-01T06:54:56;19.90;;;12.60;;
55732;SDS011;41637;52.364;9.910;2023-03-01T06:57:23;19.20;;;11.60;;
55732;SDS011;41637;52.364;9.910;2023-03-01T06:59:52;14.00;;;9.80;;
55732;SDS011;41637;52.364;9.910;2023-03-01T07:02:19;16.40;;;10.70;;
55732;SDS011;41637;52.364;9.910;2023-03-01T07:04:48;18.00;;;11.50;;
55732;SDS011;41637;52.364;9.910;2023-03-01T07:07:16;18.00;;;11.10;;
55732;SDS011;41637;52.364;9.910;2023-03-01T07:09:44;18.80;;;10.90;;
55732;SDS011;41637;52.364;9.910;2023-03-01T07:12:11;21.10;;;11.90;;
55732;SDS011;41637;52.364;9.910;2023-03-01T07:14:40;23.40;;;11.70;;
55732;SDS011;41637;52.364;9.910;2023-03-01T07:17:07;18.30;;;11.00;;
55732;SDS011;41637;52.364;9.910;2023-03-01T07:19:34;19.90;;;11.70;;
55732;SDS011;41637;52.364;9.910;2023-03-01T07:22:03;16.80;;;10.80;;
55732;SDS011;41637;52.364;9.910;2023-03-01T07:24:33;17.60;;;11.00;;
55732;SDS011;41637;52.364;9.910;2023-03-01T07:27:01;17.10;;;11.50;;
55732;SDS011;41637;52.364;9.910;2023-03-01T07:29:28;17.60;;;11.20;;
55732;SDS011;41637;52.364;9.910;2023-03-01T07:31:55;18.60;;;10.70;;
55732;SDS011;41637;52.364;9.910;2023-03-01T07:34:22;19.00;;;11.40;;
55732;SDS011;41637;52.364;9.910;2023-03-01T07:36:50;16.20;;;10.40;;
55732;SDS011;41637;52.364;9.910;2023-03-01T07:39:17;17.60;;;11.00;;
55732;SDS011;41637;52.364;9.910;2023-03-01T07:41:45;16.90;;;10.40;;
55732;SDS011;41637;52.364;9.910;2023-03-01T07:44:12;17.50;;;11.70;;
55732;SDS011;41637;52.364;9.910;2023-03-01T07:46:39;17.80;;;11.00;;
55732;SDS011;41637;52.364;9.910;2023-03-01T07:49:07;16.50;;;10.50;;
55732;SDS011;41637;52.364;9.910;2023-03-01T07:51:34;17.20;;;10.10;;
55732;SDS011;41637;52.364;9.910;2023-03-01T07:54:01;15.00;;;9.30;;
55732;SDS011;41637;52.364;9.910;2023-03-01T07:56:28;17.90;;;10.30;;
55732;SDS011;41637;52.364;9.910;2023-03-01T07:58:55;14.90;;;10.50;;
55732;SDS011;41637;52.364;9.910;2023-03-01T08:01:25;19.40;;;10.40;;
55732;SDS011;41637;52.364;9.910;2023-03-01T08:03:52;13.50;;;9.80;;
55732;SDS011;41637;52.364;9.910;2023-03-01T08:06:19;19.60;;;10.70;;
55732;SDS011;41637;52.364;9.910;2023-03-01T08:08:46;16.80;;;10.90;;
55732;SDS011;41637;52.364;9.910;2023-03-01T08:11:14;18.10;;;10.20;;
55732;SDS011;41637;52.364;9.910;2023-03-01T08:13:42;15.00;;;10.20;;
55732;SDS011;41637;52.364;9.910;2023-03-01T08:16:13;14.90;;;9.60;;
55732;SDS011;41637;52.364;9.910;2023-03-01T08:18:40;15.20;;;10.40;;
55732;SDS011;41637;52.364;9.910;2023-03-01T08:21:12;13.70;;;8.60;;
55732;SDS011;41637;52.364;9.910;2023-03-01T08:23:40;14.90;;;9.00;;
55732;SDS011;41637;52.364;9.910;2023-03-01T08:28:38;15.60;;;8.90;;
55732;SDS011;41637;52.364;9.910;2023-03-01T08:34:02;16.00;;;8.40;;
55732;SDS011;41637;52.364;9.910;2023-03-01T08:36:32;13.30;;;8.80;;
55732;SDS011;41637;52.364;9.910;2023-03-01T08:39:03;13.90;;;8.40;;
55732;SDS011;41637;52.364;9.910;2023-03-01T08:41:32;14.70;;;8.50;;
55732;SDS011;41637;52.364;9.910;2023-03-01T08:43:59;15.10;;;8.30;;
55732;SDS011;41637;52.364;9.910;2023-03-01T08:46:28;14.20;;;8.40;;
55732;SDS011;41637;52.364;9.910;2023-03-01T08:48:57;14.50;;;8.60;;
55732;SDS011;41637;52.364;9.910;2023-03-01T08:51:24;14.60;;;8.40;;
55732;SDS011;41637;52.364;9.910;2023-03-01T08:53:52;15.00;;;8.60;;
55732;SDS011;41637;52.364;9.910;2023-03-01T08:56:19;12.70;;;8.00;;
55732;SDS011;41637;52.364;9.910;2023-03-01T08:58:49;12.50;;;8.30;;
55732;SDS011;41637;52.364;9.910;2023-03-01T09:01:18;11.60;;;7.40;;
55732;SDS011;41637;52.364;9.910;2023-03-01T09:03:47;11.70;;;7.60;;
55732;SDS011;41637;52.364;9.910;2023-03-01T09:06:14;13.10;;;7.70;;
55732;SDS011;41637;52.364;9.910;2023-03-01T09:08:43;12.70;;;7.30;;
55732;SDS011;41637;52.364;9.910;2023-03-01T09:11:12;13.40;;;7.10;;
55732;SDS011;41637;52.364;9.910;2023-03-01T09:13:42;13.90;;;7.60;;
55732;SDS011;41637;52.364;9.910;2023-03-01T09:16:10;17.00;;;7.20;;
55732;SDS011;41637;52.364;9.910;2023-03-01T09:18:37;15.20;;;7.10;;
55732;SDS011;41637;52.364;9.910;2023-03-01T09:21:06;12.50;;;7.20;;
55732;SDS011;41637;52.364;9.910;2023-03-01T09:23:37;13.80;;;6.90;;
55732;SDS011;41637;52.364;9.910;2023-03-01T09:26:07;11.20;;;6.40;;
55732;SDS011;41637;52.364;9.910;2023-03-01T09:28:38;11.80;;;6.80;;
55732;SDS011;41637;52.364;9.910;2023-03-01T09:31:09;15.70;;;6.70;;
55732;SDS011;41637;52.364;9.910;2023-03-01T09:33:39;11.20;;;5.50;;
55732;SDS011;41637;52.364;9.910;2023-03-01T09:36:08;11.50;;;5.40;;
55732;SDS011;41637;52.364;9.910;2023-03-01T09:38:41;7.80;;;4.60;;
55732;SDS011;41637;52.364;9.910;2023-03-01T09:41:57;7.90;;;4.60;;
55732;SDS011;41637;52.364;9.910;2023-03-01T09:44:10;7.40;;;4.50;;
55732;SDS011;41637;52.364;9.910;2023-03-01T09:46:58;7.70;;;4.70;;
55732;SDS011;41637;52.364;9.910;2023-03-01T09:49:28;7.50;;;5.10;;
55732;SDS011;41637;52.364;9.910;2023-03-01T09:52:00;8.00;;;5.10;;
55732;SDS011;41637;52.364;9.910;2023-03-01T09:54:35;7.60;;;4.70;;
55732;SDS011;41637;52.364;9.910;2023-03-01T10:02:57;7.00;;;4.10;;
55732;SDS011;41637;52.364;9.910;2023-03-01T10:06:04;7.50;;;4.70;;
55732;SDS011;41637;52.364;9.910;2023-03-01T10:09:11;8.40;;;4.70;;
55732;SDS011;41637;52.364;9.910;2023-03-01T10:11:43;6.80;;;4.30;;
55732;SDS011;41637;52.364;9.910;2023-03-01T10:14:29;7.40;;;4.30;;
55732;SDS011;41637;52.364;9.910;2023-03-01T10:17:01;8.80;;;4.90;;
55732;SDS011;41637;52.364;9.910;2023-03-01T10:19:36;7.20;;;4.50;;
55732;SDS011;41637;52.364;9.910;2023-03-01T10:22:21;6.30;;;3.70;;
55732;SDS011;41637;52.364;9.910;2023-03-01T10:24:56;7.50;;;4.00;;
55732;SDS011;41637;52.364;9.910;2023-03-01T10:27:25;7.30;;;4.10;;
55732;SDS011;41637;52.364;9.910;2023-03-01T10:32:33;7.80;;;3.90;;
55732;SDS011;41637;52.364;9.910;2023-03-01T10:35:00;5.70;;;3.50;;
55732;SDS011;41637;52.364;9.910;2023-03-01T10:37:27;6.50;;;3.70;;
55732;SDS011;41637;52.364;9.910;2023-03-01T10:42:26;8.50;;;3.80;;
55732;SDS011;41637;52.364;9.910;2023-03-01T10:44:57;7.10;;;3.70;;
55732;SDS011;41637;52.364;9.910;2023-03-01T10:47:40;6.90;;;3.80;;
55732;SDS011;41637;52.364;9.910;2023-03-01T10:50:21;8.90;;;4.30;;
55732;SDS011;41637;52.364;9.910;2023-03-01T10:52:59;6.00;;;3.60;;
55732;SDS011;41637;52.364;9.910;2023-03-01T10:55:36;5.70;;;3.70;;
55732;SDS011;41637;52.364;9.910;2023-03-01T11:03:27;5.80;;;3.50;;
55732;SDS011;41637;52.364;9.910;2023-03-01T11:05:59;8.40;;;3.50;;
55732;SDS011;41637;52.364;9.910;2023-03-01T11:08:30;5.90;;;2.80;;
55732;SDS011;41637;52.364;9.910;2023-03-01T11:11:06;5.10;;;3.00;;
55732;SDS011;41637;52.364;9.910;2023-03-01T11:16:23;5.60;;;3.20;;
55732;SDS011;41637;52.364;9.910;2023-03-01T11:19:25;4.50;;;2.90;;
55732;SDS011;41637;52.364;9.910;2023-03-01T11:24:33;5.70;;;3.10;;
55732;SDS011;41637;52.364;9.910;2023-03-01T11:30:24;5.20;;;2.90;;
55732;SDS011;41637;52.364;9.910;2023-03-01T11:35:35;5.40;;;2.70;;
55732;SDS011;41637;52.364;9.910;2023-03-01T11:38:25;4.90;;;3.10;;
55732;SDS011;41637;52.364;9.910;2023-03-01T11:41:00;5.70;;;3.30;;
55732;SDS011;41637;52.364;9.910;2023-03-01T11:43:49;7.00;;;3.30;;
55732;SDS011;41637;52.364;9.910;2023-03-01T11:48:50;4.90;;;3.00;;
55732;SDS011;41637;52.364;9.910;2023-03-01T11:56:50;5.40;;;3.80;;
55732;SDS011;41637;52.364;9.910;2023-03-01T12:04:53;6.00;;;2.80;;
55732;SDS011;41637;52.364;9.910;2023-03-01T12:13:42;4.60;;;3.10;;
55732;SDS011;41637;52.364;9.910;2023-03-01T12:19:21;4.80;;;2.60;;
55732;SDS011;41637;52.364;9.910;2023-03-01T12:22:17;5.60;;;2.80;;
55732;SDS011;41637;52.364;9.910;2023-03-01T12:27:46;4.80;;;2.90;;
55732;SDS011;41637;52.364;9.910;2023-03-01T12:30:26;3.90;;;2.30;;
55732;SDS011;41637;52.364;9.910;2023-03-01T12:35:40;3.70;;;2.50;;
55732;SDS011;41637;52.364;9.910;2023-03-01T12:44:31;4.00;;;2.50;;
55732;SDS011;41637;52.364;9.910;2023-03-01T12:50:12;3.60;;;1.90;;
55732;SDS011;41637;52.364;9.910;2023-03-01T12:52:51;3.60;;;2.00;;
55732;SDS011;41637;52.364;9.910;2023-03-01T12:58:23;3.90;;;2.40;;
55732;SDS011;41637;52.364;9.910;2023-03-01T13:09:34;3.00;;;2.10;;
55732;SDS011;41637;52.364;9.910;2023-03-01T13:12:03;3.60;;;2.10;;
55732;SDS011;41637;52.364;9.910;2023-03-01T13:14:50;8.50;;;2.70;;
55732;SDS011;41637;52.364;9.910;2023-03-01T13:17:30;4.70;;;2.10;;
55732;SDS011;41637;52.364;9.910;2023-03-01T13:19:59;4.30;;;2.40;;
55732;SDS011;41637;52.364;9.910;2023-03-01T13:22:30;4.40;;;2.40;;
55732;SDS011;41637;52.364;9.910;2023-03-01T13:31:03;3.30;;;2.20;;
55732;SDS011;41637;52.364;9.910;2023-03-01T13:35:59;4.00;;;1.90;;
55732;SDS011;41637;52.364;9.910;2023-03-01T13:41:15;3.00;;;2.00;;
55732;SDS011;41637;52.364;9.910;2023-03-01T13:43:44;4.70;;;2.30;;
55732;SDS011;41637;52.364;9.910;2023-03-01T13:46:23;3.10;;;2.10;;
55732;SDS011;41637;52.364;9.910;2023-03-01T13:48:51;3.20;;;2.10;;
55732;SDS011;41637;52.364;9.910;2023-03-01T13:51:22;3.10;;;1.80;;
55732;SDS011;41637;52.364;9.910;2023-03-01T13:53:51;3.30;;;1.90;;
55732;SDS011;41637;52.364;9.910;2023-03-01T13:56:27;2.60;;;1.90;;
55732;SDS011;41637;52.364;9.910;2023-03-01T13:59:01;3.10;;;2.10;;
55732;SDS011;41637;52.364;9.910;2023-03-01T14:01:33;4.00;;;1.90;;
55732;SDS011;41637;52.364;9.910;2023-03-01T14:04:03;2.70;;;2.10;;
55732;SDS011;41637;52.364;9.910;2023-03-01T14:06:48;4.20;;;1.90;;
55732;SDS011;41637;52.364;9.910;2023-03-01T14:09:20;3.00;;;1.80;;
55732;SDS011;41637;52.364;9.910;2023-03-01T14:20:31;2.70;;;2.00;;
55732;SDS011;41637;52.364;9.910;2023-03-01T14:23:02;3.40;;;2.20;;
55732;SDS011;41637;52.364;9.910;2023-03-01T14:25:36;3.00;;;1.70;;
55732;SDS011;41637;52.364;9.910;2023-03-01T14:28:16;2.60;;;1.90;;
55732;SDS011;41637;52.364;9.910;2023-03-01T14:30:48;5.40;;;2.10;;
55732;SDS011;41637;52.364;9.910;2023-03-01T14:36:09;2.60;;;1.60;;
55732;SDS011;41637;52.364;9.910;2023-03-01T14:38:38;3.50;;;1.70;;
55732;SDS011;41637;52.364;9.910;2023-03-01T14:41:08;2.60;;;1.90;;
55732;SDS011;41637;52.364;9.910;2023-03-01T14:43:39;3.40;;;1.80;;
55732;SDS011;41637;52.364;9.910;2023-03-01T14:46:26;2.40;;;1.80;;
55732;SDS011;41637;52.364;9.910;2023-03-01T14:49:15;3.10;;;2.00;;
55732;SDS011;41637;52.364;9.910;2023-03-01T14:52:07;2.80;;;1.80;;
55732;SDS011;41637;52.364;9.910;2023-03-01T14:54:40;2.60;;;1.90;;
55732;SDS011;41637;52.364;9.910;2023-03-01T14:57:13;2.80;;;1.80;;
55732;SDS011;41637;52.364;9.910;2023-03-01T14:59:45;4.10;;;1.70;;
55732;SDS011;41637;52.364;9.910;2023-03-01T15:02:15;3.20;;;1.80;;
55732;SDS011;41637;52.364;9.910;2023-03-01T15:04:46;3.10;;;1.70;;
55732;SDS011;41637;52.364;9.910;2023-03-01T15:07:14;3.70;;;1.80;;
55732;SDS011;41637;52.364;9.910;2023-03-01T15:09:42;3.50;;;1.80;;
55732;SDS011;41637;52.364;9.910;2023-03-01T15:14:57;3.40;;;1.70;;
55732;SDS011;41637;52.364;9.910;2023-03-01T15:17:36;3.10;;;1.60;;
55732;SDS011;41637;52.364;9.910;2023-03-01T15:20:26;3.20;;;1.80;;
55732;SDS011;41637;52.364;9.910;2023-03-01T15:22:53;3.20;;;1.70;;
55732;SDS011;41637;52.364;9.910;2023-03-01T15:25:23;2.70;;;1.70;;
55732;SDS011;41637;52.364;9.910;2023-03-01T15:27:52;3.10;;;1.70;;
55732;SDS011;41637;52.364;9.910;2023-03-01T15:30:22;3.20;;;1.80;;
55732;SDS011;41637;52.364;9.910;2023-03-01T15:33:17;3.20;;;2.00;;
55732;SDS011;41637;52.364;9.910;2023-03-01T15:35:49;3.10;;;1.90;;
55732;SDS011;41637;52.364;9.910;2023-03-01T15:38:24;3.90;;;1.80;;
55732;SDS011;41637;52.364;9.910;2023-03-01T15:40:53;3.60;;;1.90;;
55732;SDS011;41637;52.364;9.910;2023-03-01T15:46:20;3.70;;;1.60;;
55732;SDS011;41637;52.364;9.910;2023-03-01T15:48:55;3.10;;;1.90;;
55732;SDS011;41637;52.364;9.910;2023-03-01T15:51:44;3.90;;;1.60;;
55732;SDS011;41637;52.364;9.910;2023-03-01T15:54:21;3.20;;;1.90;;
55732;SDS011;41637;52.364;9.910;2023-03-01T15:56:49;2.70;;;1.80;;
55732;SDS011;41637;52.364;9.910;2023-03-01T15:59:17;2.80;;;1.60;;
55732;SDS011;41637;52.364;9.910;2023-03-01T16:01:44;2.50;;;1.60;;
55732;SDS011;41637;52.364;9.910;2023-03-01T16:04:14;3.20;;;1.90;;
55732;SDS011;41637;52.364;9.910;2023-03-01T16:06:47;3.30;;;1.70;;
55732;SDS011;41637;52.364;9.910;2023-03-01T16:09:23;5.90;;;1.80;;
55732;SDS011;41637;52.364;9.910;2023-03-01T16:11:53;3.10;;;1.60;;
55732;SDS011;41637;52.364;9.910;2023-03-01T16:14:21;3.70;;;1.80;;
55732;SDS011;41637;52.364;9.910;2023-03-01T16:16:48;4.20;;;1.70;;
55732;SDS011;41637;52.364;9.910;2023-03-01T16:19:15;2.60;;;1.60;;
55732;SDS011;41637;52.364;9.910;2023-03-01T16:21:42;3.00;;;1.60;;
55732;SDS011;41637;52.364;9.910;2023-03-01T16:24:09;2.80;;;1.60;;
55732;SDS011;41637;52.364;9.910;2023-03-01T16:26:36;3.20;;;1.70;;
55732;SDS011;41637;52.364;9.910;2023-03-01T16:29:04;4.90;;;2.10;;
55732;SDS011;41637;52.364;9.910;2023-03-01T16:31:31;3.50;;;1.80;;
55732;SDS011;41637;52.364;9.910;2023-03-01T16:33:59;2.90;;;1.70;;
55732;SDS011;41637;52.364;9.910;2023-03-01T16:36:26;3.50;;;2.00;;
55732;SDS011;41637;52.364;9.910;2023-03-01T16:38:55;4.10;;;2.10;;
55732;SDS011;41637;52.364;9.910;2023-03-01T16:41:24;3.10;;;2.00;;
55732;SDS011;41637;52.364;9.910;2023-03-01T16:43:51;3.50;;;1.90;;
55732;SDS011;41637;52.364;9.910;2023-03-01T16:46:19;3.10;;;1.80;;
55732;SDS011;41637;52.364;9.910;2023-03-01T16:48:49;2.90;;;1.80;;
55732;SDS011;41637;52.364;9.910;2023-03-01T16:51:16;4.20;;;1.90;;
55732;SDS011;41637;52.364;9.910;2023-03-01T16:53:43;3.50;;;1.90;;
55732;SDS011;41637;52.364;9.910;2023-03-01T16:56:12;5.00;;;2.10;;
55732;SDS011;41637;52.364;9.910;2023-03-01T16:58:40;5.40;;;2.60;;
55732;SDS011;41637;52.364;9.910;2023-03-01T17:01:25;6.60;;;2.90;;
55732;SDS011;41637;52.364;9.910;2023-03-01T17:03:52;6.90;;;3.50;;